sensor_id;sensor_type;location;lat;lon;timestamp;P1;durP1;ratioP1;P2;durP2;ratioP2
20611;SDS011;10465;42.686;23.364;2023-05-07T00:00:16;13.00;;;10.75;;
20611;SDS011;10465;42.686;23.364;2023-05-07T00:02:44;13.98;;;10.77;;
20611;SDS011;10465;42.686;23.364;2023-05-07T00:05:10;15.30;;;10.73;;
20611;SDS011;10465;42.686;23.364;2023-05-07T00:07:36;14.93;;;10.15;;
20611;SDS011;10465;42.686;23.364;2023-05-07T00:10:02;12.32;;;9.25;;
20611;SDS011;10465;42.686;23.364;2023-05-07T00:12:28;12.18;;;8.98;;
20611;SDS011;10465;42.686;23.364;2023-05-07T00:14:56;13.82;;;10.30;;
20611;SDS011;10465;42.686;23.364;2023-05-07T00:17:22;14.07;;;9.23;;
20611;SDS011;10465;42.686;23.364;2023-05-07T00:19:47;14.50;;;9.98;;
20611;SDS011;10465;42.686;23.364;2023-05-07T00:22:13;12.80;;;9.80;;
20611;SDS011;10465;42.686;23.364;2023-05-07T00:24:38;12.07;;;9.40;;
20611;SDS011;10465;42.686;23.364;2023-05-07T00:27:04;14.45;;;9.45;;
20611;SDS011;10465;42.686;23.364;2023-05-07T00:29:29;11.48;;;8.93;;
20611;SDS011;10465;42.686;23.364;2023-05-07T00:31:54;13.48;;;9.75;;
20611;SDS011;10465;42.686;23.364;2023-05-07T00:34:20;12.80;;;9.50;;
20611;SDS011;10465;42.686;23.364;2023-05-07T00:36:45;10.77;;;8.63;;
20611;SDS011;10465;42.686;23.364;2023-05-07T00:39:11;10.65;;;8.68;;
20611;SDS011;10465;42.686;23.364;2023-05-07T00:41:36;16.08;;;9.20;;
20611;SDS011;10465;42.686;23.364;2023-05-07T00:44:02;10.82;;;8.73;;
20611;SDS011;10465;42.686;23.364;2023-05-07T00:46:27;13.75;;;10.10;;
20611;SDS011;10465;42.686;23.364;2023-05-07T00:48:55;11.73;;;9.15;;
20611;SDS011;10465;42.686;23.364;2023-05-07T00:51:21;16.67;;;11.27;;
20611;SDS011;10465;42.686;23.364;2023-05-07T00:53:47;15.57;;;9.70;;
20611;SDS011;10465;42.686;23.364;2023-05-07T00:56:13;16.10;;;9.45;;
20611;SDS011;10465;42.686;23.364;2023-05-07T00:58:38;13.38;;;10.32;;
20611;SDS011;10465;42.686;23.364;2023-05-07T01:01:05;13.90;;;9.20;;
20611;SDS011;10465;42.686;23.364;2023-05-07T01:03:31;12.32;;;7.65;;
20611;SDS011;10465;42.686;23.364;2023-05-07T01:05:57;10.52;;;7.40;;
20611;SDS011;10465;42.686;23.364;2023-05-07T01:08:24;11.30;;;7.65;;
20611;SDS011;10465;42.686;23.364;2023-05-07T01:10:51;9.82;;;7.10;;
20611;SDS011;10465;42.686;23.364;2023-05-07T01:13:18;8.50;;;7.10;;
20611;SDS011;10465;42.686;23.364;2023-05-07T01:15:44;14.23;;;6.97;;
20611;SDS011;10465;42.686;23.364;2023-05-07T01:18:10;7.82;;;6.50;;
20611;SDS011;10465;42.686;23.364;2023-05-07T01:20:35;8.40;;;6.18;;
20611;SDS011;10465;42.686;23.364;2023-05-07T01:23:01;8.10;;;5.30;;
20611;SDS011;10465;42.686;23.364;2023-05-07T01:25:28;7.38;;;5.45;;
20611;SDS011;10465;42.686;23.364;2023-05-07T01:27:53;7.53;;;5.25;;
20611;SDS011;10465;42.686;23.364;2023-05-07T01:30:20;7.78;;;5.70;;
20611;SDS011;10465;42.686;23.364;2023-05-07T01:35:18;7.15;;;5.82;;
20611;SDS011;10465;42.686;23.364;2023-05-07T01:37:45;8.75;;;5.72;;
20611;SDS011;10465;42.686;23.364;2023-05-07T01:40:12;8.95;;;5.47;;
20611;SDS011;10465;42.686;23.364;2023-05-07T01:42:38;8.40;;;5.45;;
20611;SDS011;10465;42.686;23.364;2023-05-07T01:45:06;6.35;;;5.38;;
20611;SDS011;10465;42.686;23.364;2023-05-07T01:47:32;7.68;;;5.53;;
20611;SDS011;10465;42.686;23.364;2023-05-07T01:49:58;10.10;;;5.80;;
20611;SDS011;10465;42.686;23.364;2023-05-07T01:52:24;6.43;;;5.70;;
20611;SDS011;10465;42.686;23.364;2023-05-07T01:54:50;8.60;;;6.20;;
20611;SDS011;10465;42.686;23.364;2023-05-07T01:57:15;11.05;;;7.18;;
20611;SDS011;10465;42.686;23.364;2023-05-07T01:59:41;10.57;;;7.50;;
20611;SDS011;10465;42.686;23.364;2023-05-07T02:02:06;9.98;;;7.50;;
20611;SDS011;10465;42.686;23.364;2023-05-07T02:04:31;10.65;;;7.38;;
20611;SDS011;10465;42.686;23.364;2023-05-07T02:06:57;9.63;;;8.02;;
20611;SDS011;10465;42.686;23.364;2023-05-07T02:09:22;9.35;;;7.10;;
20611;SDS011;10465;42.686;23.364;2023-05-07T02:11:48;9.77;;;7.80;;
20611;SDS011;10465;42.686;23.364;2023-05-07T02:14:13;10.98;;;7.00;;
20611;SDS011;10465;42.686;23.364;2023-05-07T02:16:40;9.38;;;6.85;;
20611;SDS011;10465;42.686;23.364;2023-05-07T02:19:06;9.25;;;7.18;;
20611;SDS011;10465;42.686;23.364;2023-05-07T02:21:31;8.52;;;7.53;;
20611;SDS011;10465;42.686;23.364;2023-05-07T02:23:57;10.35;;;8.32;;
20611;SDS011;10465;42.686;23.364;2023-05-07T02:26:22;9.07;;;7.85;;
20611;SDS011;10465;42.686;23.364;2023-05-07T02:28:47;10.35;;;7.68;;
20611;SDS011;10465;42.686;23.364;2023-05-07T02:31:13;10.52;;;8.60;;
20611;SDS011;10465;42.686;23.364;2023-05-07T02:33:38;11.93;;;8.65;;
20611;SDS011;10465;42.686;23.364;2023-05-07T02:36:10;11.45;;;9.25;;
20611;SDS011;10465;42.686;23.364;2023-05-07T02:38:36;14.40;;;11.13;;
20611;SDS011;10465;42.686;23.364;2023-05-07T02:41:02;12.48;;;9.57;;
20611;SDS011;10465;42.686;23.364;2023-05-07T02:43:27;12.45;;;9.75;;
20611;SDS011;10465;42.686;23.364;2023-05-07T02:46:03;13.07;;;9.43;;
20611;SDS011;10465;42.686;23.364;2023-05-07T02:48:29;11.98;;;9.55;;
20611;SDS011;10465;42.686;23.364;2023-05-07T02:50:55;16.05;;;10.85;;
20611;SDS011;10465;42.686;23.364;2023-05-07T02:53:20;14.50;;;10.30;;
20611;SDS011;10465;42.686;23.364;2023-05-07T02:55:45;14.15;;;11.32;;
20611;SDS011;10465;42.686;23.364;2023-05-07T02:58:11;15.75;;;10.55;;
20611;SDS011;10465;42.686;23.364;2023-05-07T03:00:36;14.15;;;10.48;;
20611;SDS011;10465;42.686;23.364;2023-05-07T03:03:02;14.52;;;10.60;;
20611;SDS011;10465;42.686;23.364;2023-05-07T03:05:27;12.48;;;10.88;;
20611;SDS011;10465;42.686;23.364;2023-05-07T03:07:53;16.48;;;11.25;;
20611;SDS011;10465;42.686;23.364;2023-05-07T03:10:18;14.77;;;10.82;;
20611;SDS011;10465;42.686;23.364;2023-05-07T03:12:44;13.57;;;10.57;;
20611;SDS011;10465;42.686;23.364;2023-05-07T03:15:10;12.68;;;10.50;;
20611;SDS011;10465;42.686;23.364;2023-05-07T03:17:37;13.63;;;10.15;;
20611;SDS011;10465;42.686;23.364;2023-05-07T03:20:03;14.38;;;11.07;;
20611;SDS011;10465;42.686;23.364;2023-05-07T03:22:29;12.70;;;10.40;;
20611;SDS011;10465;42.686;23.364;2023-05-07T03:24:54;17.30;;;11.45;;
20611;SDS011;10465;42.686;23.364;2023-05-07T03:27:20;12.82;;;10.55;;
20611;SDS011;10465;42.686;23.364;2023-05-07T03:29:45;14.85;;;11.65;;
20611;SDS011;10465;42.686;23.364;2023-05-07T03:32:10;12.48;;;10.98;;
20611;SDS011;10465;42.686;23.364;2023-05-07T03:34:36;14.85;;;11.65;;
20611;SDS011;10465;42.686;23.364;2023-05-07T03:37:01;17.88;;;13.20;;
20611;SDS011;10465;42.686;23.364;2023-05-07T03:39:27;17.70;;;12.93;;
20611;SDS011;10465;42.686;23.364;2023-05-07T03:41:52;15.57;;;12.32;;
20611;SDS011;10465;42.686;23.364;2023-05-07T03:44:18;15.60;;;12.45;;
20611;SDS011;10465;42.686;23.364;2023-05-07T03:46:43;16.88;;;12.80;;
20611;SDS011;10465;42.686;23.364;2023-05-07T03:49:09;19.88;;;13.02;;
20611;SDS011;10465;42.686;23.364;2023-05-07T03:51:34;16.17;;;11.70;;
20611;SDS011;10465;42.686;23.364;2023-05-07T03:54:01;14.38;;;11.75;;
20611;SDS011;10465;42.686;23.364;2023-05-07T03:56:26;19.55;;;12.00;;
20611;SDS011;10465;42.686;23.364;2023-05-07T03:58:52;16.92;;;12.55;;
20611;SDS011;10465;42.686;23.364;2023-05-07T04:01:18;15.18;;;11.45;;
20611;SDS011;10465;42.686;23.364;2023-05-07T04:03:44;17.10;;;12.90;;
20611;SDS011;10465;42.686;23.364;2023-05-07T04:06:09;16.33;;;11.88;;
20611;SDS011;10465;42.686;23.364;2023-05-07T04:08:35;15.35;;;10.85;;
20611;SDS011;10465;42.686;23.364;2023-05-07T04:11:01;15.15;;;11.45;;
20611;SDS011;10465;42.686;23.364;2023-05-07T04:13:26;18.08;;;12.38;;
20611;SDS011;10465;42.686;23.364;2023-05-07T04:15:52;17.45;;;12.73;;
20611;SDS011;10465;42.686;23.364;2023-05-07T04:18:21;15.50;;;12.20;;
20611;SDS011;10465;42.686;23.364;2023-05-07T04:20:47;14.25;;;11.10;;
20611;SDS011;10465;42.686;23.364;2023-05-07T04:23:14;15.95;;;11.55;;
20611;SDS011;10465;42.686;23.364;2023-05-07T04:25:39;15.02;;;12.05;;
20611;SDS011;10465;42.686;23.364;2023-05-07T04:28:05;16.85;;;12.02;;
20611;SDS011;10465;42.686;23.364;2023-05-07T04:30:31;16.08;;;11.50;;
20611;SDS011;10465;42.686;23.364;2023-05-07T04:32:56;14.27;;;12.05;;
20611;SDS011;10465;42.686;23.364;2023-05-07T04:35:22;16.27;;;11.73;;
20611;SDS011;10465;42.686;23.364;2023-05-07T04:37:47;16.40;;;12.07;;
20611;SDS011;10465;42.686;23.364;2023-05-07T04:40:12;13.85;;;11.70;;
20611;SDS011;10465;42.686;23.364;2023-05-07T04:42:38;15.55;;;12.00;;
20611;SDS011;10465;42.686;23.364;2023-05-07T04:45:04;15.05;;;11.50;;
20611;SDS011;10465;42.686;23.364;2023-05-07T04:47:30;16.23;;;11.95;;
20611;SDS011;10465;42.686;23.364;2023-05-07T04:49:55;16.48;;;11.93;;
20611;SDS011;10465;42.686;23.364;2023-05-07T04:52:22;14.43;;;11.73;;
20611;SDS011;10465;42.686;23.364;2023-05-07T04:54:47;13.80;;;11.82;;
20611;SDS011;10465;42.686;23.364;2023-05-07T04:57:13;17.35;;;11.38;;
20611;SDS011;10465;42.686;23.364;2023-05-07T04:59:38;16.40;;;11.38;;
20611;SDS011;10465;42.686;23.364;2023-05-07T05:02:04;14.07;;;11.13;;
20611;SDS011;10465;42.686;23.364;2023-05-07T05:04:29;19.55;;;12.15;;
20611;SDS011;10465;42.686;23.364;2023-05-07T05:06:55;17.60;;;12.45;;
20611;SDS011;10465;42.686;23.364;2023-05-07T05:09:20;16.50;;;12.00;;
20611;SDS011;10465;42.686;23.364;2023-05-07T05:11:46;19.30;;;12.60;;
20611;SDS011;10465;42.686;23.364;2023-05-07T05:14:11;17.92;;;12.40;;
20611;SDS011;10465;42.686;23.364;2023-05-07T05:16:37;15.02;;;11.85;;
20611;SDS011;10465;42.686;23.364;2023-05-07T05:19:02;14.13;;;12.23;;
20611;SDS011;10465;42.686;23.364;2023-05-07T05:21:27;17.27;;;12.38;;
20611;SDS011;10465;42.686;23.364;2023-05-07T05:23:53;17.88;;;12.80;;
20611;SDS011;10465;42.686;23.364;2023-05-07T05:26:19;18.80;;;12.05;;
20611;SDS011;10465;42.686;23.364;2023-05-07T05:28:46;18.10;;;12.38;;
20611;SDS011;10465;42.686;23.364;2023-05-07T05:31:11;16.30;;;11.80;;
20611;SDS011;10465;42.686;23.364;2023-05-07T05:33:37;18.27;;;11.82;;
20611;SDS011;10465;42.686;23.364;2023-05-07T05:36:02;14.57;;;11.43;;
20611;SDS011;10465;42.686;23.364;2023-05-07T05:38:28;15.80;;;12.05;;
20611;SDS011;10465;42.686;23.364;2023-05-07T05:40:54;16.90;;;10.95;;
20611;SDS011;10465;42.686;23.364;2023-05-07T05:43:19;17.27;;;12.52;;
20611;SDS011;10465;42.686;23.364;2023-05-07T05:45:45;14.75;;;11.38;;
20611;SDS011;10465;42.686;23.364;2023-05-07T05:48:10;16.95;;;11.82;;
20611;SDS011;10465;42.686;23.364;2023-05-07T05:50:36;16.10;;;11.95;;
20611;SDS011;10465;42.686;23.364;2023-05-07T05:53:02;16.02;;;12.18;;
20611;SDS011;10465;42.686;23.364;2023-05-07T05:55:27;15.45;;;11.88;;
20611;SDS011;10465;42.686;23.364;2023-05-07T05:57:52;15.00;;;11.43;;
20611;SDS011;10465;42.686;23.364;2023-05-07T06:00:18;16.02;;;11.55;;
20611;SDS011;10465;42.686;23.364;2023-05-07T06:02:47;16.95;;;12.50;;
20611;SDS011;10465;42.686;23.364;2023-05-07T06:05:12;15.30;;;11.48;;
20611;SDS011;10465;42.686;23.364;2023-05-07T06:07:38;15.50;;;11.68;;
20611;SDS011;10465;42.686;23.364;2023-05-07T06:10:04;15.50;;;11.50;;
20611;SDS011;10465;42.686;23.364;2023-05-07T06:12:30;13.32;;;10.25;;
20611;SDS011;10465;42.686;23.364;2023-05-07T06:14:55;15.85;;;11.85;;
20611;SDS011;10465;42.686;23.364;2023-05-07T06:17:20;15.73;;;11.38;;
20611;SDS011;10465;42.686;23.364;2023-05-07T06:19:46;15.02;;;12.02;;
20611;SDS011;10465;42.686;23.364;2023-05-07T06:22:11;16.45;;;11.43;;
20611;SDS011;10465;42.686;23.364;2023-05-07T06:24:39;15.02;;;12.00;;
20611;SDS011;10465;42.686;23.364;2023-05-07T06:27:04;19.02;;;11.95;;
20611;SDS011;10465;42.686;23.364;2023-05-07T06:29:30;16.40;;;11.82;;
20611;SDS011;10465;42.686;23.364;2023-05-07T06:32:05;15.65;;;11.88;;
20611;SDS011;10465;42.686;23.364;2023-05-07T06:34:35;15.63;;;11.75;;
20611;SDS011;10465;42.686;23.364;2023-05-07T06:37:01;14.15;;;11.63;;
20611;SDS011;10465;42.686;23.364;2023-05-07T06:39:26;17.77;;;13.35;;
20611;SDS011;10465;42.686;23.364;2023-05-07T06:41:52;19.88;;;13.43;;
20611;SDS011;10465;42.686;23.364;2023-05-07T06:44:18;18.60;;;13.52;;
20611;SDS011;10465;42.686;23.364;2023-05-07T06:46:43;20.13;;;13.02;;
20611;SDS011;10465;42.686;23.364;2023-05-07T06:49:10;17.52;;;14.07;;
20611;SDS011;10465;42.686;23.364;2023-05-07T06:51:35;19.02;;;13.90;;
20611;SDS011;10465;42.686;23.364;2023-05-07T06:54:01;16.42;;;13.77;;
20611;SDS011;10465;42.686;23.364;2023-05-07T06:56:26;17.15;;;13.35;;
20611;SDS011;10465;42.686;23.364;2023-05-07T06:58:52;17.38;;;13.98;;
20611;SDS011;10465;42.686;23.364;2023-05-07T07:01:17;16.38;;;12.55;;
20611;SDS011;10465;42.686;23.364;2023-05-07T07:03:43;16.95;;;12.88;;
20611;SDS011;10465;42.686;23.364;2023-05-07T07:06:08;16.00;;;13.45;;
20611;SDS011;10465;42.686;23.364;2023-05-07T07:08:34;17.80;;;13.00;;
20611;SDS011;10465;42.686;23.364;2023-05-07T07:11:03;17.73;;;12.95;;
20611;SDS011;10465;42.686;23.364;2023-05-07T07:13:29;20.23;;;12.85;;
20611;SDS011;10465;42.686;23.364;2023-05-07T07:15:55;20.67;;;13.70;;
20611;SDS011;10465;42.686;23.364;2023-05-07T07:18:20;17.83;;;14.35;;
20611;SDS011;10465;42.686;23.364;2023-05-07T07:20:46;18.98;;;13.15;;
20611;SDS011;10465;42.686;23.364;2023-05-07T07:23:11;18.40;;;14.02;;
20611;SDS011;10465;42.686;23.364;2023-05-07T07:25:37;19.52;;;14.07;;
20611;SDS011;10465;42.686;23.364;2023-05-07T07:28:02;16.80;;;13.65;;
20611;SDS011;10465;42.686;23.364;2023-05-07T07:30:28;18.88;;;13.73;;
20611;SDS011;10465;42.686;23.364;2023-05-07T07:32:53;15.90;;;12.60;;
20611;SDS011;10465;42.686;23.364;2023-05-07T07:35:20;14.35;;;12.27;;
20611;SDS011;10465;42.686;23.364;2023-05-07T07:37:45;18.05;;;13.57;;
20611;SDS011;10465;42.686;23.364;2023-05-07T07:40:12;16.25;;;12.73;;
20611;SDS011;10465;42.686;23.364;2023-05-07T07:42:39;15.43;;;11.80;;
20611;SDS011;10465;42.686;23.364;2023-05-07T07:45:04;20.65;;;11.98;;
20611;SDS011;10465;42.686;23.364;2023-05-07T07:47:30;14.40;;;11.93;;
20611;SDS011;10465;42.686;23.364;2023-05-07T07:49:55;18.70;;;13.18;;
20611;SDS011;10465;42.686;23.364;2023-05-07T07:52:21;18.35;;;12.20;;
20611;SDS011;10465;42.686;23.364;2023-05-07T07:54:46;14.60;;;11.02;;
20611;SDS011;10465;42.686;23.364;2023-05-07T07:57:12;16.13;;;12.07;;
20611;SDS011;10465;42.686;23.364;2023-05-07T07:59:37;17.77;;;12.20;;
20611;SDS011;10465;42.686;23.364;2023-05-07T08:02:03;14.73;;;11.93;;
20611;SDS011;10465;42.686;23.364;2023-05-07T08:04:28;15.27;;;10.93;;
20611;SDS011;10465;42.686;23.364;2023-05-07T08:06:55;18.52;;;11.63;;
20611;SDS011;10465;42.686;23.364;2023-05-07T08:09:21;13.57;;;11.13;;
20611;SDS011;10465;42.686;23.364;2023-05-07T08:11:46;13.52;;;10.73;;
20611;SDS011;10465;42.686;23.364;2023-05-07T08:14:12;17.95;;;11.20;;
20611;SDS011;10465;42.686;23.364;2023-05-07T08:16:37;17.85;;;11.13;;
20611;SDS011;10465;42.686;23.364;2023-05-07T08:19:03;14.52;;;11.07;;
20611;SDS011;10465;42.686;23.364;2023-05-07T08:21:28;14.57;;;11.02;;
20611;SDS011;10465;42.686;23.364;2023-05-07T08:23:54;15.07;;;10.95;;
20611;SDS011;10465;42.686;23.364;2023-05-07T08:26:19;11.80;;;10.02;;
20611;SDS011;10465;42.686;23.364;2023-05-07T08:28:45;13.20;;;10.35;;
20611;SDS011;10465;42.686;23.364;2023-05-07T08:31:10;15.80;;;10.73;;
20611;SDS011;10465;42.686;23.364;2023-05-07T08:33:36;12.10;;;10.20;;
20611;SDS011;10465;42.686;23.364;2023-05-07T08:36:03;15.00;;;10.55;;
20611;SDS011;10465;42.686;23.364;2023-05-07T08:38:29;13.25;;;10.43;;
20611;SDS011;10465;42.686;23.364;2023-05-07T08:40:54;14.38;;;9.85;;
20611;SDS011;10465;42.686;23.364;2023-05-07T08:43:19;12.63;;;9.40;;
20611;SDS011;10465;42.686;23.364;2023-05-07T08:45:48;14.27;;;9.85;;
20611;SDS011;10465;42.686;23.364;2023-05-07T08:48:16;11.70;;;9.25;;
20611;SDS011;10465;42.686;23.364;2023-05-07T08:50:42;11.35;;;8.50;;
20611;SDS011;10465;42.686;23.364;2023-05-07T08:53:08;10.35;;;8.40;;
20611;SDS011;10465;42.686;23.364;2023-05-07T08:55:34;11.68;;;8.73;;
20611;SDS011;10465;42.686;23.364;2023-05-07T08:57:59;9.25;;;7.85;;
20611;SDS011;10465;42.686;23.364;2023-05-07T09:00:25;11.07;;;6.60;;
20611;SDS011;10465;42.686;23.364;2023-05-07T09:02:52;9.52;;;6.25;;
20611;SDS011;10465;42.686;23.364;2023-05-07T09:05:18;7.47;;;5.65;;
20611;SDS011;10465;42.686;23.364;2023-05-07T09:07:43;8.02;;;6.45;;
20611;SDS011;10465;42.686;23.364;2023-05-07T09:10:09;7.95;;;6.03;;
20611;SDS011;10465;42.686;23.364;2023-05-07T09:12:35;7.82;;;5.82;;
20611;SDS011;10465;42.686;23.364;2023-05-07T09:15:01;7.43;;;6.30;;
20611;SDS011;10465;42.686;23.364;2023-05-07T09:17:27;7.75;;;6.68;;
20611;SDS011;10465;42.686;23.364;2023-05-07T09:19:53;11.73;;;6.15;;
20611;SDS011;10465;42.686;23.364;2023-05-07T09:22:19;9.57;;;6.47;;
20611;SDS011;10465;42.686;23.364;2023-05-07T09:24:48;6.90;;;5.82;;
20611;SDS011;10465;42.686;23.364;2023-05-07T09:27:14;6.13;;;5.53;;
20611;SDS011;10465;42.686;23.364;2023-05-07T09:29:40;7.20;;;5.35;;
20611;SDS011;10465;42.686;23.364;2023-05-07T09:32:06;9.18;;;5.45;;
20611;SDS011;10465;42.686;23.364;2023-05-07T09:34:32;9.00;;;5.88;;
20611;SDS011;10465;42.686;23.364;2023-05-07T09:37:04;9.50;;;5.63;;
20611;SDS011;10465;42.686;23.364;2023-05-07T09:42:09;6.65;;;5.75;;
20611;SDS011;10465;42.686;23.364;2023-05-07T09:44:36;6.20;;;5.60;;
20611;SDS011;10465;42.686;23.364;2023-05-07T09:47:05;7.68;;;5.43;;
20611;SDS011;10465;42.686;23.364;2023-05-07T09:49:33;6.15;;;5.05;;
20611;SDS011;10465;42.686;23.364;2023-05-07T09:52:01;5.80;;;4.45;;
20611;SDS011;10465;42.686;23.364;2023-05-07T09:54:28;5.70;;;4.53;;
20611;SDS011;10465;42.686;23.364;2023-05-07T09:56:54;8.18;;;5.00;;
20611;SDS011;10465;42.686;23.364;2023-05-07T09:59:20;7.50;;;4.78;;
20611;SDS011;10465;42.686;23.364;2023-05-07T10:01:47;7.05;;;5.53;;
20611;SDS011;10465;42.686;23.364;2023-05-07T10:04:14;6.07;;;4.60;;
20611;SDS011;10465;42.686;23.364;2023-05-07T10:06:40;6.78;;;5.32;;
20611;SDS011;10465;42.686;23.364;2023-05-07T10:09:06;6.15;;;4.70;;
20611;SDS011;10465;42.686;23.364;2023-05-07T10:11:34;8.23;;;4.28;;
20611;SDS011;10465;42.686;23.364;2023-05-07T10:14:01;5.78;;;4.47;;
20611;SDS011;10465;42.686;23.364;2023-05-07T10:16:31;6.57;;;3.95;;
20611;SDS011;10465;42.686;23.364;2023-05-07T10:18:58;5.55;;;3.90;;
20611;SDS011;10465;42.686;23.364;2023-05-07T10:21:24;5.22;;;4.05;;
20611;SDS011;10465;42.686;23.364;2023-05-07T10:24:00;4.95;;;3.85;;
20611;SDS011;10465;42.686;23.364;2023-05-07T10:26:31;6.35;;;3.90;;
20611;SDS011;10465;42.686;23.364;2023-05-07T10:29:04;5.28;;;3.83;;
20611;SDS011;10465;42.686;23.364;2023-05-07T10:34:27;6.30;;;4.03;;
20611;SDS011;10465;42.686;23.364;2023-05-07T10:36:57;5.25;;;4.05;;
20611;SDS011;10465;42.686;23.364;2023-05-07T10:39:23;7.00;;;4.75;;
20611;SDS011;10465;42.686;23.364;2023-05-07T10:41:49;6.30;;;4.82;;
20611;SDS011;10465;42.686;23.364;2023-05-07T10:44:27;6.18;;;4.40;;
20611;SDS011;10465;42.686;23.364;2023-05-07T10:47:16;6.32;;;4.45;;
20611;SDS011;10465;42.686;23.364;2023-05-07T10:52:14;6.05;;;4.80;;
20611;SDS011;10465;42.686;23.364;2023-05-07T10:54:41;7.18;;;4.60;;
20611;SDS011;10465;42.686;23.364;2023-05-07T11:05:25;5.15;;;4.63;;
20611;SDS011;10465;42.686;23.364;2023-05-07T11:08:02;4.70;;;4.30;;
20611;SDS011;10465;42.686;23.364;2023-05-07T11:10:48;5.50;;;5.00;;
20611;SDS011;10465;42.686;23.364;2023-05-07T11:13:16;5.68;;;4.18;;
20611;SDS011;10465;42.686;23.364;2023-05-07T11:15:46;6.93;;;4.70;;
20611;SDS011;10465;42.686;23.364;2023-05-07T11:18:16;5.07;;;4.55;;
20611;SDS011;10465;42.686;23.364;2023-05-07T11:20:46;6.63;;;4.85;;
20611;SDS011;10465;42.686;23.364;2023-05-07T11:28:29;6.70;;;3.92;;
20611;SDS011;10465;42.686;23.364;2023-05-07T11:30:56;8.05;;;4.53;;
20611;SDS011;10465;42.686;23.364;2023-05-07T11:33:22;4.43;;;3.70;;
20611;SDS011;10465;42.686;23.364;2023-05-07T11:35:50;4.55;;;3.55;;
20611;SDS011;10465;42.686;23.364;2023-05-07T11:38:17;4.47;;;4.07;;
20611;SDS011;10465;42.686;23.364;2023-05-07T11:40:55;5.80;;;3.80;;
20611;SDS011;10465;42.686;23.364;2023-05-07T11:43:22;7.07;;;4.25;;
20611;SDS011;10465;42.686;23.364;2023-05-07T11:45:47;5.47;;;4.60;;
20611;SDS011;10465;42.686;23.364;2023-05-07T11:48:14;4.57;;;4.13;;
20611;SDS011;10465;42.686;23.364;2023-05-07T11:50:53;5.50;;;4.03;;
20611;SDS011;10465;42.686;23.364;2023-05-07T11:53:25;3.80;;;3.50;;
20611;SDS011;10465;42.686;23.364;2023-05-07T11:55:57;4.97;;;3.88;;
20611;SDS011;10465;42.686;23.364;2023-05-07T11:58:23;4.05;;;3.63;;
20611;SDS011;10465;42.686;23.364;2023-05-07T12:00:50;5.95;;;4.55;;
20611;SDS011;10465;42.686;23.364;2023-05-07T12:03:17;6.80;;;4.20;;
20611;SDS011;10465;42.686;23.364;2023-05-07T12:05:43;6.43;;;4.47;;
20611;SDS011;10465;42.686;23.364;2023-05-07T12:08:13;4.28;;;3.88;;
20611;SDS011;10465;42.686;23.364;2023-05-07T12:10:48;5.45;;;3.83;;
20611;SDS011;10465;42.686;23.364;2023-05-07T12:13:18;6.43;;;3.92;;
20611;SDS011;10465;42.686;23.364;2023-05-07T12:15:44;6.03;;;4.35;;
20611;SDS011;10465;42.686;23.364;2023-05-07T12:18:11;4.15;;;3.75;;
20611;SDS011;10465;42.686;23.364;2023-05-07T12:20:37;5.50;;;4.15;;
20611;SDS011;10465;42.686;23.364;2023-05-07T12:23:03;4.88;;;4.30;;
20611;SDS011;10465;42.686;23.364;2023-05-07T12:25:33;4.25;;;3.85;;
20611;SDS011;10465;42.686;23.364;2023-05-07T12:28:01;4.18;;;3.78;;
20611;SDS011;10465;42.686;23.364;2023-05-07T12:30:27;5.10;;;3.67;;
20611;SDS011;10465;42.686;23.364;2023-05-07T12:32:53;4.28;;;3.95;;
20611;SDS011;10465;42.686;23.364;2023-05-07T12:35:28;5.35;;;4.00;;
20611;SDS011;10465;42.686;23.364;2023-05-07T12:38:00;4.85;;;4.32;;
20611;SDS011;10465;42.686;23.364;2023-05-07T12:40:38;6.28;;;4.18;;
20611;SDS011;10465;42.686;23.364;2023-05-07T12:43:05;6.32;;;3.95;;
20611;SDS011;10465;42.686;23.364;2023-05-07T12:45:31;5.38;;;3.45;;
20611;SDS011;10465;42.686;23.364;2023-05-07T12:48:04;5.72;;;3.45;;
20611;SDS011;10465;42.686;23.364;2023-05-07T12:50:33;3.65;;;2.90;;
20611;SDS011;10465;42.686;23.364;2023-05-07T12:52:58;2.83;;;2.58;;
20611;SDS011;10465;42.686;23.364;2023-05-07T12:55:24;2.83;;;2.55;;
20611;SDS011;10465;42.686;23.364;2023-05-07T12:57:51;5.18;;;3.20;;
20611;SDS011;10465;42.686;23.364;2023-05-07T13:00:17;3.20;;;2.90;;
20611;SDS011;10465;42.686;23.364;2023-05-07T13:02:58;4.60;;;3.05;;
20611;SDS011;10465;42.686;23.364;2023-05-07T13:05:23;4.30;;;3.00;;
20611;SDS011;10465;42.686;23.364;2023-05-07T13:07:57;5.72;;;2.85;;
20611;SDS011;10465;42.686;23.364;2023-05-07T13:10:23;5.38;;;3.10;;
20611;SDS011;10465;42.686;23.364;2023-05-07T13:12:50;3.65;;;2.83;;
20611;SDS011;10465;42.686;23.364;2023-05-07T13:15:16;3.95;;;2.75;;
20611;SDS011;10465;42.686;23.364;2023-05-07T13:17:42;2.95;;;2.63;;
20611;SDS011;10465;42.686;23.364;2023-05-07T13:20:09;3.92;;;2.65;;
20611;SDS011;10465;42.686;23.364;2023-05-07T13:22:35;3.30;;;2.42;;
20611;SDS011;10465;42.686;23.364;2023-05-07T13:25:01;5.30;;;3.00;;
20611;SDS011;10465;42.686;23.364;2023-05-07T13:27:26;4.03;;;3.60;;
20611;SDS011;10465;42.686;23.364;2023-05-07T13:29:51;4.85;;;3.53;;
20611;SDS011;10465;42.686;23.364;2023-05-07T13:32:17;3.22;;;2.85;;
20611;SDS011;10465;42.686;23.364;2023-05-07T13:34:42;5.70;;;3.22;;
20611;SDS011;10465;42.686;23.364;2023-05-07T13:37:08;3.45;;;2.97;;
20611;SDS011;10465;42.686;23.364;2023-05-07T13:39:33;5.50;;;3.13;;
20611;SDS011;10465;42.686;23.364;2023-05-07T13:41:59;3.95;;;3.00;;
20611;SDS011;10465;42.686;23.364;2023-05-07T13:44:24;3.50;;;3.20;;
20611;SDS011;10465;42.686;23.364;2023-05-07T13:46:50;3.65;;;3.28;;
20611;SDS011;10465;42.686;23.364;2023-05-07T13:49:16;3.88;;;3.22;;
20611;SDS011;10465;42.686;23.364;2023-05-07T13:51:41;3.67;;;3.38;;
20611;SDS011;10465;42.686;23.364;2023-05-07T13:54:07;5.35;;;3.10;;
20611;SDS011;10465;42.686;23.364;2023-05-07T13:56:33;3.33;;;2.78;;
20611;SDS011;10465;42.686;23.364;2023-05-07T13:58:58;3.25;;;2.95;;
20611;SDS011;10465;42.686;23.364;2023-05-07T14:01:24;5.40;;;3.08;;
20611;SDS011;10465;42.686;23.364;2023-05-07T14:03:49;3.63;;;3.33;;
20611;SDS011;10465;42.686;23.364;2023-05-07T14:06:15;3.35;;;3.05;;
20611;SDS011;10465;42.686;23.364;2023-05-07T14:08:40;6.70;;;3.25;;
20611;SDS011;10465;42.686;23.364;2023-05-07T14:11:05;4.22;;;3.17;;
20611;SDS011;10465;42.686;23.364;2023-05-07T14:13:31;3.75;;;3.33;;
20611;SDS011;10465;42.686;23.364;2023-05-07T14:15:57;4.03;;;3.20;;
20611;SDS011;10465;42.686;23.364;2023-05-07T14:18:23;3.00;;;2.78;;
20611;SDS011;10465;42.686;23.364;2023-05-07T14:20:48;3.40;;;3.10;;
20611;SDS011;10465;42.686;23.364;2023-05-07T14:23:14;3.28;;;3.03;;
20611;SDS011;10465;42.686;23.364;2023-05-07T14:25:39;3.40;;;3.10;;
20611;SDS011;10465;42.686;23.364;2023-05-07T14:28:06;6.25;;;3.47;;
20611;SDS011;10465;42.686;23.364;2023-05-07T14:30:31;4.72;;;3.35;;
20611;SDS011;10465;42.686;23.364;2023-05-07T14:32:57;3.60;;;3.00;;
20611;SDS011;10465;42.686;23.364;2023-05-07T14:35:22;3.65;;;3.35;;
20611;SDS011;10465;42.686;23.364;2023-05-07T14:37:48;4.85;;;3.15;;
20611;SDS011;10465;42.686;23.364;2023-05-07T14:40:13;3.85;;;3.22;;